Atlantic - Newfoundland: Past 24 Hour Conditions

 

St. Lawrence

03:30 PM NDT 22 September 2014
This table is a summary of hourly weather conditions for the past 24 hours.
Date / Time
(NDT)
Wind(knots) Conditions Visibility(km) Pressure(kPa) Air tempC) Relative humidity(%) Dew pointC)
22 September 2014
15:30 S 29 gust 48 N/A N/A 100.5 19 94 17
14:30 S 27 gust 47 N/A N/A 100.7 18 95 17
13:30 SSE 33 gust 43 N/A N/A 100.8 18 95 17
12:30 SSE 29 gust 43 N/A N/A 101.0 17 95 16
11:30 SSE 26 gust 39 N/A N/A 101.2 17 91 15
10:30 SSE 20 gust 31 N/A N/A 101.3 17 90 15
9:30 SSE 24 gust 37 N/A N/A 101.4 18 89 16
8:30 SSE 26 gust 39 N/A N/A 101.5 18 89 16
7:30 SSE 24 gust 36 N/A N/A 101.6 17 87 15
6:30 SSE 23 gust 28 N/A N/A 101.7 17 89 15
5:30 S 13 gust 21 N/A N/A 101.7 16 94 15
4:30 S 9 gust 15 N/A N/A 101.8 16 95 15
3:30 S 14 gust 19 N/A N/A 101.9 16 96 16
2:30 SSW 11 gust 18 N/A N/A 101.9 15 96 15
1:30 SSW 9 N/A N/A 102.0 15 96 14
0:30 SSW 9 N/A N/A 102.1 15 96 14
21 September 2014
23:30 SSW 12 gust 17 N/A N/A 102.1 16 96 15
22:30 SW 12 N/A N/A 102.1 14 96 14
21:30 SW 14 N/A N/A 102.0 15 95 14
20:30 SW 12 N/A N/A 102.0 14 94 14
19:30 SW 12 N/A N/A 102.0 15 94 13
18:30 SW 12 gust 17 N/A N/A 102.0 15 91 13
17:30 SW 17 N/A N/A 102.0 16 86 14
16:30 SW 16 gust 21 N/A N/A 102.0 17 82 14
15:30 SW 13 gust 23 N/A N/A 102.0 18 81 14
 
Map of Atlantic - Newfoundland marine weather areas Southwestern Grand Banks - 44138 Banquereau - 44139 Tail of the Bank - 44140 Nickerson Bank - 44251 Northeast Burgeo Bank - 44255 Blanc-Sablon Airport Cap Whittle Chevery Natashquan Airport Heath Point Miscou Island Grand Étang Ingonish Beach North Mountain St.Paul Island J.A. Douglas McCurdy Sydney Airport Charlottetown Airport East Point North Cape Argentia Bonavista Burgeo Cape Race Corner Brook Daniel's Harbour Englee Ferolle Point La Scie Port aux Basques Rocky Harbour Sagona Island St. Anthony Airport St. John's Int'l Airport St. Lawrence Stephenville Airport Twillingate Winterland Wreckhouse Cartwright Airport Mary's Harbour Grates Cove Pool's Island Marticot Island Long Pond Îles de la Madeleine Airport
Legend: buoyBuoy land stationLand Station